createdAt,value
2018-12-19T00:02:21.168Z,99654.70
2018-12-19T00:04:49.591Z,99650.36
2018-12-19T00:07:17.972Z,99641.02
2018-12-19T00:09:46.356Z,99635.07
2018-12-19T00:12:14.728Z,99631.58
2018-12-19T00:14:43.124Z,99628.84
2018-12-19T00:17:11.605Z,99634.77
2018-12-19T00:19:40.079Z,99647.30
2018-12-19T00:22:08.463Z,99646.23
2018-12-19T00:24:36.828Z,99659.69
2018-12-19T00:27:05.225Z,99646.54
2018-12-19T00:29:33.576Z,99664.48
2018-12-19T00:32:02.155Z,99653.20
2018-12-19T00:34:30.651Z,99640.58
2018-12-19T00:36:59.079Z,99618.10
2018-12-19T00:39:27.437Z,99613.94
2018-12-19T00:41:55.815Z,99620.55
2018-12-19T00:44:24.191Z,99623.60
2018-12-19T00:46:52.577Z,99626.51
2018-12-19T00:49:20.936Z,99624.58
2018-12-19T00:51:49.363Z,99624.88
2018-12-19T00:54:17.723Z,99626.61
2018-12-19T00:56:46.121Z,99633.73
2018-12-19T00:59:14.535Z,99627.47
2018-12-19T01:01:42.970Z,99634.05
2018-12-19T01:04:11.323Z,99636.55
2018-12-19T01:06:40.283Z,99638.91
2018-12-19T01:09:08.736Z,99635.70
2018-12-19T01:11:37.156Z,99642.37
2018-12-19T01:14:06.343Z,99648.98
2018-12-19T01:16:34.731Z,99638.34
2018-12-19T01:19:03.159Z,99639.02
2018-12-19T01:21:31.533Z,99633.00
2018-12-19T01:23:59.935Z,99635.98
2018-12-19T01:26:28.355Z,99639.65
2018-12-19T01:28:56.734Z,99638.33
2018-12-19T01:31:25.119Z,99633.72
2018-12-19T01:33:53.637Z,99623.74
2018-12-19T01:36:22.072Z,99623.78
2018-12-19T01:38:50.512Z,99629.92
2018-12-19T01:41:18.927Z,99629.20
2018-12-19T01:43:47.372Z,99626.30
2018-12-19T01:46:15.778Z,99622.45
2018-12-19T01:48:44.159Z,99619.69
2018-12-19T01:51:12.655Z,99622.82
2018-12-19T01:53:42.123Z,99626.43
2018-12-19T01:56:10.545Z,99624.58
2018-12-19T01:58:38.899Z,99620.71
2018-12-19T02:01:07.330Z,99611.00
2018-12-19T02:03:35.699Z,99615.20
2018-12-19T02:06:04.076Z,99609.07
2018-12-19T02:08:32.463Z,99618.47
2018-12-19T02:11:00.882Z,99612.72
2018-12-19T02:13:29.267Z,99607.73
2018-12-19T02:15:57.728Z,99605.80
2018-12-19T02:18:26.121Z,99615.36
2018-12-19T02:20:54.496Z,99607.44
2018-12-19T02:23:22.896Z,99611.27
2018-12-19T02:25:51.296Z,99602.66
2018-12-19T02:28:19.703Z,99588.99
2018-12-19T02:30:48.106Z,99581.48
2018-12-19T02:33:16.476Z,99588.03
2018-12-19T02:35:44.853Z,99592.41
2018-12-19T02:38:13.266Z,99591.84
2018-12-19T02:40:41.652Z,99580.23
2018-12-19T02:43:10.093Z,99572.70
2018-12-19T02:45:38.474Z,99576.53
2018-12-19T02:48:06.859Z,99578.28
2018-12-19T02:50:35.273Z,99581.03
2018-12-19T02:53:03.684Z,99573.94
2018-12-19T02:55:32.096Z,99563.95
2018-12-19T02:58:00.461Z,99563.77
2018-12-19T03:00:28.832Z,99550.63
2018-12-19T03:02:57.214Z,99558.87
2018-12-19T03:05:25.594Z,99553.67
2018-12-19T03:07:54.017Z,99553.83
2018-12-19T03:10:22.404Z,99550.92
2018-12-19T03:12:50.846Z,99548.45
2018-12-19T03:15:19.321Z,99541.45
2018-12-19T03:17:47.767Z,99540.39
2018-12-19T03:20:16.246Z,99546.70
2018-12-19T03:22:44.631Z,99544.75
2018-12-19T03:25:13.015Z,99550.83
2018-12-19T03:27:41.402Z,99564.72
2018-12-19T03:30:10.064Z,99554.84
2018-12-19T03:32:38.464Z,99554.91
2018-12-19T03:35:06.992Z,99558.70
2018-12-19T03:37:35.381Z,99548.39
2018-12-19T03:40:10.360Z,99550.66
2018-12-19T03:42:38.751Z,99544.08
2018-12-19T03:45:07.581Z,99538.84
2018-12-19T03:47:36.085Z,99550.03
2018-12-19T03:50:04.982Z,99554.44
2018-12-19T03:52:33.372Z,99550.20
2018-12-19T03:55:01.764Z,99542.42
2018-12-19T03:57:30.371Z,99522.47
2018-12-19T03:59:58.739Z,99521.73
2018-12-19T04:02:27.129Z,99513.31
2018-12-19T04:04:55.555Z,99516.80
2018-12-19T04:07:23.973Z,99511.80
2018-12-19T04:09:57.636Z,99511.73
2018-12-19T04:12:23.936Z,99510.44
2018-12-19T04:14:53.475Z,99509.36
2018-12-19T04:17:21.972Z,99502.39
2018-12-19T04:19:50.343Z,99502.66
2018-12-19T04:22:18.817Z,99504.43
2018-12-19T04:24:47.207Z,99516.57
2018-12-19T04:27:15.586Z,99521.17
2018-12-19T04:29:44.165Z,99513.77
2018-12-19T04:32:12.877Z,99510.84
2018-12-19T04:34:41.257Z,99523.00
2018-12-19T04:37:09.712Z,99529.92
2018-12-19T04:39:38.137Z,99528.23
2018-12-19T04:42:06.516Z,99503.73
2018-12-19T04:44:34.906Z,99507.20
2018-12-19T04:47:03.280Z,99517.17
2018-12-19T04:49:31.726Z,99519.86
2018-12-19T04:52:00.092Z,99515.83
2018-12-19T04:54:28.483Z,99520.95
2018-12-19T04:56:57.091Z,99514.52
2018-12-19T04:59:25.604Z,99533.14
2018-12-19T05:01:54.059Z,99539.31
2018-12-19T05:04:22.519Z,99536.89
2018-12-19T05:06:50.905Z,99527.78
2018-12-19T05:09:19.296Z,99515.72
2018-12-19T05:11:47.687Z,99525.95
2018-12-19T05:14:16.387Z,99513.40
2018-12-19T05:16:44.911Z,99516.92
2018-12-19T05:19:13.315Z,99525.02
2018-12-19T05:21:41.675Z,99530.04
2018-12-19T05:24:10.147Z,99525.84
2018-12-19T05:26:38.532Z,99530.34
2018-12-19T05:29:09.007Z,99534.80
2018-12-19T05:31:37.387Z,99541.86
2018-12-19T05:34:05.763Z,99537.55
2018-12-19T05:36:34.141Z,99532.38
2018-12-19T05:39:10.968Z,99533.23
2018-12-19T05:41:39.372Z,99531.88
2018-12-19T05:44:07.781Z,99540.20
2018-12-19T05:46:36.159Z,99542.65
2018-12-19T05:49:04.555Z,99549.91
2018-12-19T05:51:33.016Z,99550.97
2018-12-19T05:54:01.447Z,99551.45
2018-12-19T05:56:30.815Z,99550.30
2018-12-19T05:59:19.806Z,99548.31
2018-12-19T06:01:49.151Z,99558.53
2018-12-19T06:04:17.616Z,99568.50
2018-12-19T06:06:46.066Z,99571.28
2018-12-19T06:09:14.521Z,99569.16
2018-12-19T06:11:42.905Z,99581.59
2018-12-19T06:14:11.287Z,99580.55
2018-12-19T06:16:39.711Z,99573.31
2018-12-19T06:19:08.108Z,99571.02
2018-12-19T06:21:36.579Z,99573.16
2018-12-19T06:24:04.971Z,99573.22
2018-12-19T06:26:33.955Z,99581.00
2018-12-19T06:29:02.364Z,99576.53
2018-12-19T06:31:30.808Z,99576.56
2018-12-19T06:33:59.700Z,99577.61
2018-12-19T06:36:28.319Z,99579.83
2018-12-19T06:38:56.741Z,99574.23
2018-12-19T06:41:25.136Z,99575.70
2018-12-19T06:43:53.651Z,99575.02
2018-12-19T06:46:22.036Z,99572.53
2018-12-19T06:48:50.414Z,99569.67
2018-12-19T06:51:19.117Z,99577.70
2018-12-19T06:53:47.548Z,99584.75
2018-12-19T06:56:15.911Z,99587.91
2018-12-19T06:58:44.312Z,99592.00
2018-12-19T07:01:12.683Z,99591.25
2018-12-19T07:03:41.064Z,99596.37
2018-12-19T07:06:09.756Z,99600.22
2018-12-19T07:08:38.562Z,99602.99
2018-12-19T07:11:06.971Z,99604.95
2018-12-19T07:13:35.423Z,99606.56
2018-12-19T07:16:03.799Z,99613.66
2018-12-19T07:18:32.235Z,99618.61
2018-12-19T07:21:01.039Z,99624.69
2018-12-19T07:23:29.457Z,99626.02
2018-12-19T07:25:57.927Z,99629.17
2018-12-19T07:28:26.335Z,99631.73
2018-12-19T07:30:54.725Z,99646.27
2018-12-19T07:33:23.115Z,99644.73
2018-12-19T07:35:51.556Z,99652.51
2018-12-19T07:38:20.239Z,99645.09
2018-12-19T07:40:59.983Z,99643.44
2018-12-19T07:43:28.419Z,99645.72
2018-12-19T07:45:56.828Z,99642.84
2018-12-19T07:48:26.115Z,99643.69
2018-12-19T07:50:54.608Z,99645.77
2018-12-19T07:53:23.084Z,99650.48
2018-12-19T07:55:51.619Z,99650.33
2018-12-19T07:58:20.012Z,99660.19
2018-12-19T08:00:48.404Z,99653.61
2018-12-19T08:03:16.807Z,99663.24
2018-12-19T08:05:45.213Z,99662.56
2018-12-19T08:08:13.559Z,99669.20
2018-12-19T08:10:42.039Z,99666.98
2018-12-19T08:13:10.428Z,99662.01
2018-12-19T08:15:38.907Z,99663.56
2018-12-19T08:18:07.386Z,99668.73
2018-12-19T08:20:35.832Z,99677.70
2018-12-19T08:23:04.184Z,99675.67
2018-12-19T08:25:32.603Z,99670.91
2018-12-19T08:28:00.968Z,99668.85
2018-12-19T08:30:29.384Z,99669.98
2018-12-19T08:32:57.882Z,99672.89
2018-12-19T08:35:26.263Z,99675.27
2018-12-19T08:37:54.641Z,99682.18
2018-12-19T08:40:23.027Z,99685.23
2018-12-19T08:42:51.496Z,99686.94
2018-12-19T08:45:20.605Z,99686.83
2018-12-19T08:47:49.091Z,99686.09
2018-12-19T08:50:17.553Z,99692.38
2018-12-19T08:52:45.988Z,99697.09
2018-12-19T08:55:14.516Z,99695.70
2018-12-19T08:57:42.988Z,99693.14
2018-12-19T09:00:12.595Z,99691.23
2018-12-19T09:02:40.969Z,99692.05
2018-12-19T09:05:09.395Z,99694.30
2018-12-19T09:07:37.770Z,99697.45
2018-12-19T09:10:06.829Z,99695.84
2018-12-19T09:12:35.211Z,99690.70
2018-12-19T09:15:03.844Z,99691.62
2018-12-19T09:17:32.268Z,99696.02
2018-12-19T09:20:00.970Z,99694.58
2018-12-19T09:22:29.504Z,99695.59
2018-12-19T09:24:57.974Z,99695.72
2018-12-19T09:27:26.352Z,99705.94
2018-12-19T09:29:54.743Z,99708.59
2018-12-19T09:32:23.103Z,99711.09
2018-12-19T09:34:51.538Z,99708.34
2018-12-19T09:37:19.960Z,99714.88
2018-12-19T09:39:48.958Z,99718.67
2018-12-19T09:42:17.320Z,99720.01
2018-12-19T09:44:45.696Z,99714.83
2018-12-19T09:47:14.071Z,99715.10
2018-12-19T09:49:42.441Z,99729.20
2018-12-19T09:52:10.832Z,99725.53
2018-12-19T09:54:39.759Z,99731.81
2018-12-19T09:57:08.191Z,99730.82
2018-12-19T09:59:36.563Z,99729.94
2018-12-19T10:02:18.242Z,99726.98
2018-12-19T10:04:46.629Z,99725.46
2018-12-19T10:07:15.011Z,99725.03
2018-12-19T10:09:43.363Z,99711.71
2018-12-19T10:12:11.740Z,99711.64
2018-12-19T10:14:40.120Z,99711.16
2018-12-19T10:17:08.535Z,99703.91
2018-12-19T10:19:36.910Z,99696.84
2018-12-19T10:22:05.417Z,99687.02
2018-12-19T10:24:39.374Z,99685.53
2018-12-19T10:27:07.753Z,99678.59
2018-12-19T10:29:36.457Z,99690.19
2018-12-19T10:32:04.956Z,99687.12
2018-12-19T10:34:33.407Z,99684.77
2018-12-19T10:37:01.905Z,99683.22
2018-12-19T10:39:30.283Z,99680.36
2018-12-19T10:41:59.157Z,99672.16
2018-12-19T10:44:30.496Z,99683.45
2018-12-19T10:55:48.091Z,99678.19
2018-12-19T10:58:16.467Z,99678.72
2018-12-19T11:00:50.101Z,99675.22
2018-12-19T11:03:18.471Z,99674.42
2018-12-19T11:05:46.876Z,99675.80
2018-12-19T11:08:15.251Z,99671.17
2018-12-19T11:10:45.130Z,99675.02
2018-12-19T11:13:16.959Z,99676.37
2018-12-19T11:15:45.807Z,99683.73
2018-12-19T11:18:14.176Z,99688.87
2018-12-19T11:20:43.164Z,99696.81
2018-12-19T11:23:11.596Z,99686.24
2018-12-19T11:25:40.177Z,99689.75
2018-12-19T11:28:08.740Z,99689.97
2018-12-19T11:30:37.112Z,99683.72
2018-12-19T11:33:05.535Z,99690.63
2018-12-19T11:35:33.988Z,99693.59
2018-12-19T11:38:02.410Z,99694.41
2018-12-19T11:40:30.820Z,99696.31
2018-12-19T11:42:59.246Z,99694.08
2018-12-19T11:45:27.663Z,99689.52
2018-12-19T11:47:56.168Z,99697.16
2018-12-19T11:50:24.603Z,99696.38
2018-12-19T11:52:53.124Z,99702.08
2018-12-19T11:55:21.550Z,99695.80
2018-12-19T11:57:49.931Z,99702.04
2018-12-19T12:00:18.407Z,99701.50
2018-12-19T12:02:46.795Z,99703.44
2018-12-19T12:05:15.193Z,99698.31
2018-12-19T12:07:43.702Z,99690.13
2018-12-19T12:10:12.211Z,99690.98
2018-12-19T12:12:41.584Z,99682.52
2018-12-19T12:15:10.199Z,99677.39
2018-12-19T12:17:38.600Z,99669.27
2018-12-19T12:23:05.612Z,99673.69
2018-12-19T12:25:34.202Z,99667.16
2018-12-19T12:28:02.848Z,99661.19
2018-12-19T12:30:31.515Z,99662.27
2018-12-19T12:33:00.059Z,99656.54
2018-12-19T12:35:28.571Z,99665.49
2018-12-19T12:37:57.236Z,99663.64
2018-12-19T12:40:25.723Z,99659.62
2018-12-19T12:42:54.300Z,99668.58
2018-12-19T12:45:22.856Z,99669.93
2018-12-19T12:47:51.259Z,99669.66
2018-12-19T12:53:26.726Z,99672.34
2018-12-19T12:55:55.909Z,99658.98
2018-12-19T12:58:24.390Z,99664.12
2018-12-19T13:00:52.752Z,99653.24
2018-12-19T13:03:21.131Z,99657.86
2018-12-19T13:05:49.523Z,99658.98
2018-12-19T13:08:17.912Z,99657.37
2018-12-19T13:10:47.427Z,99656.33
2018-12-19T13:13:15.963Z,99654.50
2018-12-19T13:15:48.000Z,99662.05
2018-12-19T13:18:29.697Z,99656.55
2018-12-19T13:20:58.251Z,99655.97
2018-12-19T13:23:26.916Z,99639.39
2018-12-19T13:25:55.524Z,99635.19
2018-12-19T13:28:24.032Z,99626.87
2018-12-19T13:36:32.031Z,99617.70
2018-12-19T13:39:00.657Z,99611.22
2018-12-19T13:41:29.182Z,99614.79
2018-12-19T13:43:59.868Z,99621.55
2018-12-19T13:49:30.860Z,99629.17
2018-12-19T13:52:03.534Z,99625.19
2018-12-19T13:54:36.678Z,99614.31
2018-12-19T13:57:05.227Z,99615.64
2018-12-19T13:59:34.610Z,99614.53
2018-12-19T14:02:03.037Z,99606.95
2018-12-19T14:04:32.059Z,99611.20
2018-12-19T14:07:01.010Z,99603.63
2018-12-19T14:09:29.404Z,99609.05
2018-12-19T14:11:57.767Z,99596.30
2018-12-19T14:14:26.162Z,99592.33
2018-12-19T14:16:54.570Z,99592.12
2018-12-19T14:19:22.961Z,99591.80
2018-12-19T14:21:51.364Z,99598.88
2018-12-19T14:24:19.751Z,99594.92
2018-12-19T14:26:48.136Z,99598.91
2018-12-19T14:29:16.556Z,99599.89
2018-12-19T14:31:44.953Z,99587.66
2018-12-19T14:34:13.319Z,99582.42
2018-12-19T14:36:41.700Z,99574.27
2018-12-19T14:39:10.083Z,99582.27
2018-12-19T14:41:38.428Z,99579.48
2018-12-19T14:44:06.851Z,99579.69
2018-12-19T14:46:35.218Z,99572.81
2018-12-19T14:49:03.998Z,99573.29
2018-12-19T14:51:32.423Z,99570.38
2018-12-19T14:54:00.807Z,99568.25
2018-12-19T14:56:29.162Z,99577.26
2018-12-19T14:58:57.568Z,99564.86
2018-12-19T15:01:25.923Z,99552.06
2018-12-19T15:03:54.324Z,99554.77
2018-12-19T15:06:22.705Z,99559.95
2018-12-19T15:08:51.091Z,99563.52
2018-12-19T15:11:19.606Z,99564.27
2018-12-19T15:13:47.988Z,99566.49
2018-12-19T15:16:20.531Z,99581.15
2018-12-19T15:18:48.921Z,99589.99
2018-12-19T15:21:17.291Z,99595.70
2018-12-19T15:23:45.665Z,99601.92
2018-12-19T15:26:14.019Z,99607.28
2018-12-19T15:28:42.399Z,99617.08
2018-12-19T15:31:10.798Z,99613.33
2018-12-19T15:33:39.182Z,99617.90
2018-12-19T15:36:07.647Z,99615.23
2018-12-19T15:38:36.032Z,99611.45
2018-12-19T15:41:04.392Z,99611.08
2018-12-19T15:43:32.787Z,99609.92
2018-12-19T15:46:01.159Z,99600.55
2018-12-19T15:48:29.681Z,99596.76
2018-12-19T15:50:58.076Z,99591.84
2018-12-19T15:53:26.468Z,99590.80
2018-12-19T15:55:54.867Z,99597.02
2018-12-19T15:58:23.348Z,99597.73
2018-12-19T16:00:51.707Z,99591.47
2018-12-19T16:03:20.099Z,99593.69
2018-12-19T16:06:51.258Z,99582.87
2018-12-19T16:09:19.644Z,99577.55
2018-12-19T16:11:48.011Z,99579.39
2018-12-19T16:14:16.384Z,99581.94
2018-12-19T16:16:44.790Z,99575.12
2018-12-19T16:19:13.156Z,99577.22
2018-12-19T16:21:41.516Z,99568.03
2018-12-19T16:24:09.907Z,99569.42
2018-12-19T16:26:38.287Z,99572.72
2018-12-19T16:29:06.747Z,99569.42
2018-12-19T16:31:35.106Z,99572.49
2018-12-19T16:34:03.507Z,99581.52
2018-12-19T16:36:31.978Z,99580.09
2018-12-19T16:39:00.369Z,99588.84
2018-12-19T16:41:28.756Z,99591.48
2018-12-19T16:43:57.228Z,99597.50
2018-12-19T16:46:25.708Z,99592.76
2018-12-19T16:48:54.083Z,99595.24
2018-12-19T16:51:23.356Z,99590.02
2018-12-19T16:53:51.744Z,99597.97
2018-12-19T16:56:20.106Z,99587.48
2018-12-19T16:58:48.520Z,99590.14
2018-12-19T17:01:16.883Z,99590.52
2018-12-19T17:03:45.260Z,99584.60
2018-12-19T17:06:13.644Z,99594.88
2018-12-19T17:08:42.040Z,99600.09
2018-12-19T17:11:10.432Z,99593.42
2018-12-19T17:13:38.835Z,99596.46
2018-12-19T17:16:07.245Z,99597.66
2018-12-19T17:18:35.599Z,99595.89
2018-12-19T17:21:04.107Z,99586.52
2018-12-19T17:23:32.455Z,99584.17
2018-12-19T17:26:00.860Z,99581.97
2018-12-19T17:28:29.272Z,99583.22
2018-12-19T17:30:57.664Z,99579.62
2018-12-19T17:33:26.024Z,99579.84
2018-12-19T17:35:54.427Z,99584.72
2018-12-19T17:38:22.816Z,99591.99
2018-12-19T17:40:51.256Z,99582.87
2018-12-19T17:43:19.685Z,99597.88
2018-12-19T17:45:48.064Z,99590.23
2018-12-19T17:48:16.879Z,99593.72
2018-12-19T17:50:45.315Z,99589.97
2018-12-19T17:53:13.798Z,99585.06
2018-12-19T17:55:42.275Z,99591.02
2018-12-19T17:58:11.006Z,99589.15
2018-12-19T18:00:39.452Z,99586.67
2018-12-19T18:03:07.868Z,99587.77
2018-12-19T18:05:36.445Z,99588.58
2018-12-19T18:08:04.879Z,99588.80
2018-12-19T18:10:33.434Z,99585.84
2018-12-19T18:13:06.093Z,99589.07
2018-12-19T18:15:32.368Z,99586.97
2018-12-19T18:18:00.757Z,99580.70
2018-12-19T18:20:29.188Z,99585.39
2018-12-19T18:22:57.912Z,99583.99
2018-12-19T18:25:26.316Z,99587.66
2018-12-19T18:27:54.702Z,99595.19
2018-12-19T18:30:23.098Z,99593.01
2018-12-19T18:32:51.728Z,99596.46
2018-12-19T18:35:20.145Z,99591.58
2018-12-19T18:37:48.503Z,99584.83
2018-12-19T18:40:16.956Z,99594.76
2018-12-19T18:42:45.596Z,99596.59
2018-12-19T18:45:14.059Z,99585.92
2018-12-19T18:47:42.461Z,99580.87
2018-12-19T18:50:10.991Z,99582.53
2018-12-19T18:52:39.372Z,99582.18
2018-12-19T18:55:08.305Z,99584.53
2018-12-19T18:57:37.066Z,99588.17
2018-12-19T19:00:06.642Z,99587.56
2018-12-19T19:02:35.120Z,99583.73
2018-12-19T19:05:04.055Z,99587.78
2018-12-19T19:07:32.508Z,99583.47
2018-12-19T19:10:00.935Z,99581.56
2018-12-19T19:12:29.611Z,99587.17
2018-12-19T19:14:58.420Z,99587.47
2018-12-19T19:17:26.839Z,99586.69
2018-12-19T19:19:55.288Z,99589.64
2018-12-19T19:22:23.679Z,99596.56
2018-12-19T19:24:52.023Z,99603.91
2018-12-19T19:27:20.491Z,99600.09
2018-12-19T19:29:48.923Z,99595.42
2018-12-19T19:32:18.777Z,99598.90
2018-12-19T19:34:47.473Z,99597.23
2018-12-19T19:37:15.906Z,99601.55
2018-12-19T19:39:44.576Z,99617.45
2018-12-19T19:42:12.951Z,99611.23
2018-12-19T19:44:41.504Z,99610.66
2018-12-19T19:47:09.937Z,99604.43
2018-12-19T19:49:38.407Z,99608.12
2018-12-19T19:52:06.964Z,99599.42
2018-12-19T19:54:35.491Z,99600.20
2018-12-19T19:57:03.999Z,99604.77
2018-12-19T19:59:32.411Z,99605.02
2018-12-19T20:02:00.825Z,99604.29
2018-12-19T20:04:29.391Z,99603.56
2018-12-19T20:07:00.877Z,99602.26
2018-12-19T20:09:28.345Z,99610.92
2018-12-19T20:11:57.871Z,99612.31
2018-12-19T20:14:26.887Z,99609.70
2018-12-19T20:17:01.167Z,99613.59
2018-12-19T20:19:30.684Z,99611.71
2018-12-19T20:21:59.452Z,99617.38
2018-12-19T20:24:28.221Z,99617.29
2018-12-19T20:26:56.976Z,99617.23
2018-12-19T20:29:25.337Z,99620.41
2018-12-19T20:31:54.337Z,99621.45
2018-12-19T20:34:23.037Z,99619.05
2018-12-19T20:36:51.818Z,99616.06
2018-12-19T20:39:20.528Z,99614.34
2018-12-19T20:41:49.261Z,99602.80
2018-12-19T20:44:17.619Z,99603.69
2018-12-19T20:46:46.503Z,99603.52
2018-12-19T20:49:16.186Z,99600.00
2018-12-19T20:51:44.904Z,99603.35
2018-12-19T20:54:13.768Z,99605.16
2018-12-19T20:56:42.191Z,99605.37
2018-12-19T20:59:11.715Z,99602.72
2018-12-19T21:01:40.432Z,99607.32
2018-12-19T21:04:09.208Z,99600.94
2018-12-19T21:06:37.876Z,99603.88
2018-12-19T21:09:09.000Z,99608.28
2018-12-19T21:11:37.869Z,99618.86
2018-12-19T21:14:06.727Z,99606.15
2018-12-19T21:16:40.901Z,99613.19
2018-12-19T21:19:13.119Z,99612.22
2018-12-19T21:21:42.506Z,99615.73
2018-12-19T21:24:11.214Z,99613.81
2018-12-19T21:26:39.941Z,99622.97
2018-12-19T21:29:08.678Z,99617.95
2018-12-19T21:31:37.319Z,99622.30
2018-12-19T21:34:06.214Z,99602.85
2018-12-19T21:36:35.572Z,99597.63
2018-12-19T21:39:06.713Z,99596.03
2018-12-19T21:41:35.532Z,99592.84
2018-12-19T21:44:04.244Z,99594.72
2018-12-19T21:46:32.967Z,99595.28
2018-12-19T21:49:01.452Z,99602.98
2018-12-19T21:51:31.944Z,99608.30
2018-12-19T21:54:00.999Z,99608.94
2018-12-19T21:56:29.746Z,99611.05
2018-12-19T21:58:58.964Z,99611.36
2018-12-19T22:01:27.891Z,99607.84
2018-12-19T22:03:57.196Z,99609.52
2018-12-19T22:06:30.318Z,99611.19
2018-12-19T22:08:59.211Z,99604.63
2018-12-19T22:11:28.288Z,99607.31
2018-12-19T22:14:00.533Z,99600.89
2018-12-19T22:16:32.443Z,99602.58
2018-12-19T22:19:00.934Z,99609.36
2018-12-19T22:21:29.579Z,99607.16
2018-12-19T22:23:58.223Z,99609.27
2018-12-19T22:26:26.601Z,99612.78
2018-12-19T22:28:54.996Z,99620.60
2018-12-19T22:31:23.513Z,99617.51
2018-12-19T22:33:52.144Z,99618.66
2018-12-19T22:36:20.580Z,99622.56
2018-12-19T22:38:49.052Z,99624.22
2018-12-19T22:41:17.551Z,99623.41
2018-12-19T22:43:46.111Z,99621.49
2018-12-19T22:46:14.528Z,99623.42
2018-12-19T22:48:43.032Z,99617.03
2018-12-19T22:51:11.515Z,99625.55
2018-12-19T22:53:39.954Z,99619.33
2018-12-19T22:56:08.326Z,99622.81
2018-12-19T22:58:36.799Z,99618.20
2018-12-19T23:01:11.226Z,99619.27
2018-12-19T23:03:45.048Z,99619.45
2018-12-19T23:06:13.495Z,99616.63
2018-12-19T23:08:41.969Z,99616.33
2018-12-19T23:11:10.411Z,99611.89
2018-12-19T23:13:38.819Z,99615.98
2018-12-19T23:16:07.215Z,99617.39
2018-12-19T23:18:37.812Z,99614.16
2018-12-19T23:21:06.356Z,99608.75
2018-12-19T23:23:34.859Z,99606.64
2018-12-19T23:26:03.568Z,99609.79
2018-12-19T23:28:32.083Z,99607.92
2018-12-19T23:31:00.587Z,99608.33
2018-12-19T23:33:29.414Z,99607.87
2018-12-19T23:35:57.923Z,99594.42
2018-12-19T23:38:26.375Z,99603.77
2018-12-19T23:40:54.769Z,99592.03
2018-12-19T23:43:23.142Z,99597.59
2018-12-19T23:45:51.563Z,99596.11
2018-12-19T23:48:20.033Z,99594.33
2018-12-19T23:50:48.508Z,99598.42
2018-12-19T23:53:16.967Z,99589.47
2018-12-19T23:55:45.537Z,99583.87
2018-12-19T23:58:13.945Z,99580.75
